sensor_id;sensor_type;location;lat;lon;timestamp;P1;durP1;ratioP1;P2;durP2;ratioP2
43640;SDS011;72791;52.546;13.570;2023-09-19T00:00:40;8.30;;;3.88;;
43640;SDS011;72791;52.546;13.570;2023-09-19T00:03:06;5.30;;;3.08;;
43640;SDS011;72791;52.546;13.570;2023-09-19T00:05:35;9.25;;;3.03;;
43640;SDS011;72791;52.546;13.570;2023-09-19T00:08:03;6.05;;;3.22;;
43640;SDS011;72791;52.546;13.570;2023-09-19T00:10:29;6.07;;;3.40;;
43640;SDS011;72791;52.546;13.570;2023-09-19T00:13:00;7.22;;;3.20;;
43640;SDS011;72791;52.546;13.570;2023-09-19T00:15:30;7.00;;;3.75;;
43640;SDS011;72791;52.546;13.570;2023-09-19T00:18:00;4.85;;;2.95;;
43640;SDS011;72791;52.546;13.570;2023-09-19T00:20:26;6.05;;;3.30;;
43640;SDS011;72791;52.546;13.570;2023-09-19T00:22:54;4.15;;;2.60;;
43640;SDS011;72791;52.546;13.570;2023-09-19T00:25:20;4.57;;;2.97;;
43640;SDS011;72791;52.546;13.570;2023-09-19T00:27:46;9.13;;;3.38;;
43640;SDS011;72791;52.546;13.570;2023-09-19T00:30:15;7.18;;;3.00;;
43640;SDS011;72791;52.546;13.570;2023-09-19T00:32:45;3.33;;;2.90;;
43640;SDS011;72791;52.546;13.570;2023-09-19T00:35:15;7.13;;;3.28;;
43640;SDS011;72791;52.546;13.570;2023-09-19T00:37:41;5.30;;;3.25;;
43640;SDS011;72791;52.546;13.570;2023-09-19T00:40:08;8.60;;;3.58;;
43640;SDS011;72791;52.546;13.570;2023-09-19T00:42:38;6.53;;;3.50;;
43640;SDS011;72791;52.546;13.570;2023-09-19T00:45:06;4.18;;;3.20;;
43640;SDS011;72791;52.546;13.570;2023-09-19T00:47:39;5.88;;;3.40;;
43640;SDS011;72791;52.546;13.570;2023-09-19T00:50:05;4.78;;;3.28;;
43640;SDS011;72791;52.546;13.570;2023-09-19T00:52:36;6.72;;;3.22;;
43640;SDS011;72791;52.546;13.570;2023-09-19T00:55:07;6.97;;;3.58;;
43640;SDS011;72791;52.546;13.570;2023-09-19T00:57:34;7.55;;;3.92;;
43640;SDS011;72791;52.546;13.570;2023-09-19T01:00:03;6.10;;;3.22;;
43640;SDS011;72791;52.546;13.570;2023-09-19T01:02:31;6.00;;;3.83;;
43640;SDS011;72791;52.546;13.570;2023-09-19T01:04:57;6.55;;;3.08;;
43640;SDS011;72791;52.546;13.570;2023-09-19T01:07:24;8.02;;;3.90;;
43640;SDS011;72791;52.546;13.570;2023-09-19T01:09:50;9.18;;;4.10;;
43640;SDS011;72791;52.546;13.570;2023-09-19T01:12:19;5.13;;;3.30;;
43640;SDS011;72791;52.546;13.570;2023-09-19T01:14:55;7.78;;;3.30;;
43640;SDS011;72791;52.546;13.570;2023-09-19T01:17:27;6.80;;;3.42;;
43640;SDS011;72791;52.546;13.570;2023-09-19T01:20:11;4.45;;;3.17;;
43640;SDS011;72791;52.546;13.570;2023-09-19T01:31:38;5.97;;;3.63;;
43640;SDS011;72791;52.546;13.570;2023-09-19T01:34:07;5.38;;;3.53;;
43640;SDS011;72791;52.546;13.570;2023-09-19T01:36:37;5.30;;;3.08;;
43640;SDS011;72791;52.546;13.570;2023-09-19T01:39:07;9.60;;;3.58;;
43640;SDS011;72791;52.546;13.570;2023-09-19T01:44:11;6.25;;;3.30;;
43640;SDS011;72791;52.546;13.570;2023-09-19T01:47:03;7.13;;;3.53;;
43640;SDS011;72791;52.546;13.570;2023-09-19T01:49:40;5.38;;;3.20;;
43640;SDS011;72791;52.546;13.570;2023-09-19T01:52:12;3.42;;;3.00;;
43640;SDS011;72791;52.546;13.570;2023-09-19T01:54:51;7.00;;;3.58;;
43640;SDS011;72791;52.546;13.570;2023-09-19T01:57:28;3.38;;;2.85;;
43640;SDS011;72791;52.546;13.570;2023-09-19T02:00:02;6.63;;;2.95;;
43640;SDS011;72791;52.546;13.570;2023-09-19T02:02:35;5.90;;;2.90;;
43640;SDS011;72791;52.546;13.570;2023-09-19T02:05:03;5.10;;;2.78;;
43640;SDS011;72791;52.546;13.570;2023-09-19T02:07:29;3.97;;;3.25;;
43640;SDS011;72791;52.546;13.570;2023-09-19T02:09:59;7.43;;;3.08;;
43640;SDS011;72791;52.546;13.570;2023-09-19T02:12:32;6.35;;;3.40;;
43640;SDS011;72791;52.546;13.570;2023-09-19T02:14:58;4.93;;;3.20;;
43640;SDS011;72791;52.546;13.570;2023-09-19T02:17:26;7.57;;;3.22;;
43640;SDS011;72791;52.546;13.570;2023-09-19T02:19:55;3.15;;;2.85;;
43640;SDS011;72791;52.546;13.570;2023-09-19T02:22:21;5.97;;;3.50;;
43640;SDS011;72791;52.546;13.570;2023-09-19T02:24:47;4.50;;;2.70;;
43640;SDS011;72791;52.546;13.570;2023-09-19T02:27:17;6.50;;;3.10;;
43640;SDS011;72791;52.546;13.570;2023-09-19T02:29:43;6.95;;;3.67;;
43640;SDS011;72791;52.546;13.570;2023-09-19T02:32:08;7.13;;;4.15;;
43640;SDS011;72791;52.546;13.570;2023-09-19T02:34:37;6.32;;;3.50;;
43640;SDS011;72791;52.546;13.570;2023-09-19T02:37:04;8.95;;;3.55;;
43640;SDS011;72791;52.546;13.570;2023-09-19T02:39:38;4.88;;;3.10;;
43640;SDS011;72791;52.546;13.570;2023-09-19T02:42:04;5.45;;;2.85;;
43640;SDS011;72791;52.546;13.570;2023-09-19T02:44:30;7.78;;;3.25;;
43640;SDS011;72791;52.546;13.570;2023-09-19T02:46:56;4.82;;;3.00;;
43640;SDS011;72791;52.546;13.570;2023-09-19T02:49:26;5.88;;;3.38;;
43640;SDS011;72791;52.546;13.570;2023-09-19T02:51:52;10.65;;;4.00;;
43640;SDS011;72791;52.546;13.570;2023-09-19T02:54:18;7.85;;;3.80;;
43640;SDS011;72791;52.546;13.570;2023-09-19T02:56:44;7.47;;;3.60;;
43640;SDS011;72791;52.546;13.570;2023-09-19T02:59:10;4.40;;;3.72;;
43640;SDS011;72791;52.546;13.570;2023-09-19T03:01:36;5.88;;;3.05;;
43640;SDS011;72791;52.546;13.570;2023-09-19T03:04:04;9.35;;;3.67;;
43640;SDS011;72791;52.546;13.570;2023-09-19T03:06:31;6.30;;;3.65;;
43640;SDS011;72791;52.546;13.570;2023-09-19T03:08:57;6.95;;;3.53;;
43640;SDS011;72791;52.546;13.570;2023-09-19T03:11:25;8.85;;;4.00;;
43640;SDS011;72791;52.546;13.570;2023-09-19T03:13:52;5.00;;;3.92;;
43640;SDS011;72791;52.546;13.570;2023-09-19T03:16:18;8.13;;;3.88;;
43640;SDS011;72791;52.546;13.570;2023-09-19T03:18:47;5.20;;;3.90;;
43640;SDS011;72791;52.546;13.570;2023-09-19T03:21:16;5.45;;;3.92;;
43640;SDS011;72791;52.546;13.570;2023-09-19T03:23:42;6.43;;;3.60;;
43640;SDS011;72791;52.546;13.570;2023-09-19T03:26:12;5.97;;;3.28;;
43640;SDS011;72791;52.546;13.570;2023-09-19T03:28:39;9.10;;;3.50;;
43640;SDS011;72791;52.546;13.570;2023-09-19T03:31:06;5.63;;;3.22;;
43640;SDS011;72791;52.546;13.570;2023-09-19T03:33:32;4.90;;;2.53;;
43640;SDS011;72791;52.546;13.570;2023-09-19T03:35:59;7.85;;;2.50;;
43640;SDS011;72791;52.546;13.570;2023-09-19T03:38:26;4.15;;;2.60;;
43640;SDS011;72791;52.546;13.570;2023-09-19T03:40:54;4.38;;;1.98;;
43640;SDS011;72791;52.546;13.570;2023-09-19T03:43:21;5.75;;;2.53;;
43640;SDS011;72791;52.546;13.570;2023-09-19T03:45:46;4.72;;;2.22;;
43640;SDS011;72791;52.546;13.570;2023-09-19T03:48:12;3.67;;;2.10;;
43640;SDS011;72791;52.546;13.570;2023-09-19T03:50:38;2.33;;;1.90;;
43640;SDS011;72791;52.546;13.570;2023-09-19T03:53:05;2.88;;;1.85;;
43640;SDS011;72791;52.546;13.570;2023-09-19T03:55:34;1.65;;;1.48;;
43640;SDS011;72791;52.546;13.570;2023-09-19T03:58:04;2.53;;;1.40;;
43640;SDS011;72791;52.546;13.570;2023-09-19T04:00:30;3.40;;;1.90;;
43640;SDS011;72791;52.546;13.570;2023-09-19T04:02:57;3.85;;;2.10;;
43640;SDS011;72791;52.546;13.570;2023-09-19T04:05:23;2.53;;;1.83;;
43640;SDS011;72791;52.546;13.570;2023-09-19T04:07:49;3.45;;;1.95;;
43640;SDS011;72791;52.546;13.570;2023-09-19T04:10:18;3.13;;;1.90;;
43640;SDS011;72791;52.546;13.570;2023-09-19T04:12:53;4.82;;;1.80;;
43640;SDS011;72791;52.546;13.570;2023-09-19T04:15:20;3.65;;;1.95;;
43640;SDS011;72791;52.546;13.570;2023-09-19T04:17:48;2.63;;;1.58;;
43640;SDS011;72791;52.546;13.570;2023-09-19T04:20:17;3.20;;;1.80;;
43640;SDS011;72791;52.546;13.570;2023-09-19T04:22:50;3.83;;;2.65;;
43640;SDS011;72791;52.546;13.570;2023-09-19T04:25:16;2.17;;;1.90;;
43640;SDS011;72791;52.546;13.570;2023-09-19T04:27:43;3.75;;;2.17;;
43640;SDS011;72791;52.546;13.570;2023-09-19T04:30:09;4.25;;;2.08;;
43640;SDS011;72791;52.546;13.570;2023-09-19T04:32:37;4.07;;;2.28;;
43640;SDS011;72791;52.546;13.570;2023-09-19T04:35:05;3.53;;;2.20;;
43640;SDS011;72791;52.546;13.570;2023-09-19T04:37:38;3.97;;;2.20;;
43640;SDS011;72791;52.546;13.570;2023-09-19T04:40:07;5.85;;;2.40;;
43640;SDS011;72791;52.546;13.570;2023-09-19T04:42:38;3.75;;;2.30;;
43640;SDS011;72791;52.546;13.570;2023-09-19T04:45:07;6.40;;;2.25;;
43640;SDS011;72791;52.546;13.570;2023-09-19T04:47:35;3.80;;;2.45;;
43640;SDS011;72791;52.546;13.570;2023-09-19T04:50:04;5.80;;;2.58;;
43640;SDS011;72791;52.546;13.570;2023-09-19T04:52:38;3.13;;;2.47;;
43640;SDS011;72791;52.546;13.570;2023-09-19T04:55:28;4.45;;;2.55;;
43640;SDS011;72791;52.546;13.570;2023-09-19T04:57:55;3.55;;;2.45;;
43640;SDS011;72791;52.546;13.570;2023-09-19T05:00:21;8.40;;;2.63;;
43640;SDS011;72791;52.546;13.570;2023-09-19T05:02:54;2.58;;;2.20;;
43640;SDS011;72791;52.546;13.570;2023-09-19T05:05:23;6.25;;;2.97;;
43640;SDS011;72791;52.546;13.570;2023-09-19T05:07:50;6.85;;;2.90;;
43640;SDS011;72791;52.546;13.570;2023-09-19T05:10:19;3.80;;;2.35;;
43640;SDS011;72791;52.546;13.570;2023-09-19T05:12:45;6.18;;;2.58;;
43640;SDS011;72791;52.546;13.570;2023-09-19T05:15:13;3.70;;;2.45;;
43640;SDS011;72791;52.546;13.570;2023-09-19T05:17:48;5.22;;;2.38;;
43640;SDS011;72791;52.546;13.570;2023-09-19T05:20:21;5.45;;;2.40;;
43640;SDS011;72791;52.546;13.570;2023-09-19T05:23:04;6.60;;;2.88;;
43640;SDS011;72791;52.546;13.570;2023-09-19T05:25:33;4.57;;;2.50;;
43640;SDS011;72791;52.546;13.570;2023-09-19T05:28:03;3.83;;;2.35;;
43640;SDS011;72791;52.546;13.570;2023-09-19T05:30:31;3.15;;;2.30;;
43640;SDS011;72791;52.546;13.570;2023-09-19T05:32:57;4.40;;;2.33;;
43640;SDS011;72791;52.546;13.570;2023-09-19T05:35:23;3.88;;;2.28;;
43640;SDS011;72791;52.546;13.570;2023-09-19T05:37:52;4.28;;;2.25;;
43640;SDS011;72791;52.546;13.570;2023-09-19T05:40:20;4.50;;;2.20;;
43640;SDS011;72791;52.546;13.570;2023-09-19T05:42:46;2.58;;;2.30;;
43640;SDS011;72791;52.546;13.570;2023-09-19T05:45:12;4.65;;;2.25;;
43640;SDS011;72791;52.546;13.570;2023-09-19T05:47:39;6.95;;;2.30;;
43640;SDS011;72791;52.546;13.570;2023-09-19T05:50:06;4.57;;;2.25;;
43640;SDS011;72791;52.546;13.570;2023-09-19T05:52:34;3.65;;;2.70;;
43640;SDS011;72791;52.546;13.570;2023-09-19T05:55:03;5.55;;;2.47;;
43640;SDS011;72791;52.546;13.570;2023-09-19T05:57:31;5.43;;;2.80;;
43640;SDS011;72791;52.546;13.570;2023-09-19T05:59:57;4.88;;;2.65;;
43640;SDS011;72791;52.546;13.570;2023-09-19T06:02:23;5.78;;;2.65;;
43640;SDS011;72791;52.546;13.570;2023-09-19T06:04:52;4.03;;;2.17;;
43640;SDS011;72791;52.546;13.570;2023-09-19T06:07:18;4.03;;;2.40;;
43640;SDS011;72791;52.546;13.570;2023-09-19T06:09:43;6.20;;;2.33;;
43640;SDS011;72791;52.546;13.570;2023-09-19T06:12:09;4.15;;;2.17;;
43640;SDS011;72791;52.546;13.570;2023-09-19T06:14:38;5.55;;;2.28;;
43640;SDS011;72791;52.546;13.570;2023-09-19T06:17:05;3.33;;;2.25;;
43640;SDS011;72791;52.546;13.570;2023-09-19T06:19:31;4.30;;;2.00;;
43640;SDS011;72791;52.546;13.570;2023-09-19T06:21:57;5.50;;;2.63;;
43640;SDS011;72791;52.546;13.570;2023-09-19T06:24:24;4.05;;;2.75;;
43640;SDS011;72791;52.546;13.570;2023-09-19T06:26:50;4.78;;;2.10;;
43640;SDS011;72791;52.546;13.570;2023-09-19T06:29:18;8.30;;;3.15;;
43640;SDS011;72791;52.546;13.570;2023-09-19T06:31:45;4.13;;;2.08;;
43640;SDS011;72791;52.546;13.570;2023-09-19T06:34:12;6.47;;;2.78;;
43640;SDS011;72791;52.546;13.570;2023-09-19T06:36:40;3.92;;;2.70;;
43640;SDS011;72791;52.546;13.570;2023-09-19T06:39:07;5.57;;;2.85;;
43640;SDS011;72791;52.546;13.570;2023-09-19T06:41:36;9.68;;;2.38;;
43640;SDS011;72791;52.546;13.570;2023-09-19T06:44:04;5.00;;;2.35;;
43640;SDS011;72791;52.546;13.570;2023-09-19T06:46:30;7.45;;;2.42;;
43640;SDS011;72791;52.546;13.570;2023-09-19T06:49:00;8.38;;;3.08;;
43640;SDS011;72791;52.546;13.570;2023-09-19T06:51:28;4.35;;;2.47;;
43640;SDS011;72791;52.546;13.570;2023-09-19T06:53:54;8.52;;;2.67;;
43640;SDS011;72791;52.546;13.570;2023-09-19T06:56:22;4.57;;;2.67;;
43640;SDS011;72791;52.546;13.570;2023-09-19T06:58:50;6.22;;;2.83;;
43640;SDS011;72791;52.546;13.570;2023-09-19T07:01:15;6.50;;;2.40;;
43640;SDS011;72791;52.546;13.570;2023-09-19T07:03:41;4.55;;;2.72;;
43640;SDS011;72791;52.546;13.570;2023-09-19T07:06:10;5.97;;;2.90;;
43640;SDS011;72791;52.546;13.570;2023-09-19T07:08:36;6.50;;;2.90;;
43640;SDS011;72791;52.546;13.570;2023-09-19T07:11:22;4.57;;;2.72;;
43640;SDS011;72791;52.546;13.570;2023-09-19T07:13:48;8.25;;;2.58;;
43640;SDS011;72791;52.546;13.570;2023-09-19T07:16:14;6.60;;;3.00;;
43640;SDS011;72791;52.546;13.570;2023-09-19T07:18:52;6.22;;;2.75;;
43640;SDS011;72791;52.546;13.570;2023-09-19T07:21:21;4.13;;;2.70;;
43640;SDS011;72791;52.546;13.570;2023-09-19T07:23:48;6.65;;;2.92;;
43640;SDS011;72791;52.546;13.570;2023-09-19T07:26:14;6.25;;;2.20;;
43640;SDS011;72791;52.546;13.570;2023-09-19T07:28:41;3.13;;;2.30;;
43640;SDS011;72791;52.546;13.570;2023-09-19T07:31:07;5.60;;;2.95;;
43640;SDS011;72791;52.546;13.570;2023-09-19T07:33:53;7.05;;;2.35;;
43640;SDS011;72791;52.546;13.570;2023-09-19T07:36:19;7.82;;;2.20;;
43640;SDS011;72791;52.546;13.570;2023-09-19T07:38:45;5.25;;;2.45;;
43640;SDS011;72791;52.546;13.570;2023-09-19T07:41:10;6.25;;;2.05;;
43640;SDS011;72791;52.546;13.570;2023-09-19T07:43:37;4.43;;;2.15;;
43640;SDS011;72791;52.546;13.570;2023-09-19T07:46:26;6.30;;;2.90;;
43640;SDS011;72791;52.546;13.570;2023-09-19T07:48:51;7.53;;;2.40;;
43640;SDS011;72791;52.546;13.570;2023-09-19T07:51:17;3.53;;;2.45;;
43640;SDS011;72791;52.546;13.570;2023-09-19T07:53:43;3.75;;;2.40;;
43640;SDS011;72791;52.546;13.570;2023-09-19T07:56:09;5.50;;;2.35;;
43640;SDS011;72791;52.546;13.570;2023-09-19T07:58:35;4.00;;;2.35;;
43640;SDS011;72791;52.546;13.570;2023-09-19T08:01:04;7.32;;;2.30;;
43640;SDS011;72791;52.546;13.570;2023-09-19T08:03:35;5.43;;;2.33;;
43640;SDS011;72791;52.546;13.570;2023-09-19T08:06:08;4.97;;;2.58;;
43640;SDS011;72791;52.546;13.570;2023-09-19T08:08:35;5.55;;;2.15;;
43640;SDS011;72791;52.546;13.570;2023-09-19T08:11:04;4.28;;;2.50;;
43640;SDS011;72791;52.546;13.570;2023-09-19T08:13:40;5.70;;;2.40;;
43640;SDS011;72791;52.546;13.570;2023-09-19T08:16:10;15.43;;;2.90;;
43640;SDS011;72791;52.546;13.570;2023-09-19T08:18:36;6.28;;;2.33;;
43640;SDS011;72791;52.546;13.570;2023-09-19T08:21:06;5.40;;;2.63;;
43640;SDS011;72791;52.546;13.570;2023-09-19T08:23:36;4.80;;;2.80;;
43640;SDS011;72791;52.546;13.570;2023-09-19T08:26:03;4.82;;;2.53;;
43640;SDS011;72791;52.546;13.570;2023-09-19T08:28:33;4.38;;;2.80;;
43640;SDS011;72791;52.546;13.570;2023-09-19T08:31:19;6.38;;;2.58;;
43640;SDS011;72791;52.546;13.570;2023-09-19T08:33:45;11.43;;;3.00;;
43640;SDS011;72791;52.546;13.570;2023-09-19T08:36:14;4.47;;;2.65;;
43640;SDS011;72791;52.546;13.570;2023-09-19T08:38:40;6.03;;;2.63;;
43640;SDS011;72791;52.546;13.570;2023-09-19T08:41:06;7.93;;;2.75;;
43640;SDS011;72791;52.546;13.570;2023-09-19T08:43:33;5.93;;;2.78;;
43640;SDS011;72791;52.546;13.570;2023-09-19T08:48:37;6.93;;;3.00;;
43640;SDS011;72791;52.546;13.570;2023-09-19T08:51:18;9.38;;;2.65;;
43640;SDS011;72791;52.546;13.570;2023-09-19T08:53:52;6.65;;;2.80;;
43640;SDS011;72791;52.546;13.570;2023-09-19T08:56:26;6.22;;;3.20;;
43640;SDS011;72791;52.546;13.570;2023-09-19T08:58:58;8.25;;;3.15;;
43640;SDS011;72791;52.546;13.570;2023-09-19T09:01:27;4.35;;;2.55;;
43640;SDS011;72791;52.546;13.570;2023-09-19T09:03:54;4.40;;;3.05;;
43640;SDS011;72791;52.546;13.570;2023-09-19T09:06:21;8.02;;;3.30;;
43640;SDS011;72791;52.546;13.570;2023-09-19T09:08:48;6.13;;;3.63;;
43640;SDS011;72791;52.546;13.570;2023-09-19T09:11:16;5.55;;;3.10;;
43640;SDS011;72791;52.546;13.570;2023-09-19T09:13:45;7.35;;;3.50;;
43640;SDS011;72791;52.546;13.570;2023-09-19T09:16:12;7.15;;;3.10;;
43640;SDS011;72791;52.546;13.570;2023-09-19T09:18:39;7.25;;;2.83;;
43640;SDS011;72791;52.546;13.570;2023-09-19T09:21:05;4.68;;;3.05;;
43640;SDS011;72791;52.546;13.570;2023-09-19T09:23:31;6.15;;;2.92;;
43640;SDS011;72791;52.546;13.570;2023-09-19T09:25:57;7.38;;;3.28;;
43640;SDS011;72791;52.546;13.570;2023-09-19T09:28:38;6.03;;;3.30;;
43640;SDS011;72791;52.546;13.570;2023-09-19T09:31:25;4.43;;;2.72;;
43640;SDS011;72791;52.546;13.570;2023-09-19T09:33:54;6.10;;;2.72;;
43640;SDS011;72791;52.546;13.570;2023-09-19T09:36:37;16.83;;;4.47;;
43640;SDS011;72791;52.546;13.570;2023-09-19T09:39:05;3.80;;;2.70;;
43640;SDS011;72791;52.546;13.570;2023-09-19T09:41:44;7.63;;;2.90;;
43640;SDS011;72791;52.546;13.570;2023-09-19T09:44:15;10.75;;;2.90;;
43640;SDS011;72791;52.546;13.570;2023-09-19T09:46:45;4.88;;;3.05;;
43640;SDS011;72791;52.546;13.570;2023-09-19T09:49:15;7.45;;;3.30;;
43640;SDS011;72791;52.546;13.570;2023-09-19T09:52:03;10.77;;;3.50;;
43640;SDS011;72791;52.546;13.570;2023-09-19T09:54:41;11.07;;;3.20;;
43640;SDS011;72791;52.546;13.570;2023-09-19T09:57:31;7.72;;;3.42;;
43640;SDS011;72791;52.546;13.570;2023-09-19T09:59:59;6.15;;;3.15;;
43640;SDS011;72791;52.546;13.570;2023-09-19T10:02:41;9.20;;;3.03;;
43640;SDS011;72791;52.546;13.570;2023-09-19T10:05:11;5.32;;;3.17;;
43640;SDS011;72791;52.546;13.570;2023-09-19T10:07:50;7.93;;;2.83;;
43640;SDS011;72791;52.546;13.570;2023-09-19T10:10:31;6.72;;;3.13;;
43640;SDS011;72791;52.546;13.570;2023-09-19T10:13:06;8.38;;;3.13;;
43640;SDS011;72791;52.546;13.570;2023-09-19T10:15:32;6.07;;;3.15;;
43640;SDS011;72791;52.546;13.570;2023-09-19T10:18:01;3.17;;;2.65;;
43640;SDS011;72791;52.546;13.570;2023-09-19T10:20:30;5.65;;;2.78;;
43640;SDS011;72791;52.546;13.570;2023-09-19T10:23:07;5.82;;;3.38;;
43640;SDS011;72791;52.546;13.570;2023-09-19T10:25:42;6.90;;;3.42;;
43640;SDS011;72791;52.546;13.570;2023-09-19T10:28:12;5.32;;;2.70;;
43640;SDS011;72791;52.546;13.570;2023-09-19T10:30:41;5.60;;;2.67;;
43640;SDS011;72791;52.546;13.570;2023-09-19T10:33:16;8.10;;;2.95;;
43640;SDS011;72791;52.546;13.570;2023-09-19T10:35:46;7.10;;;2.70;;
43640;SDS011;72791;52.546;13.570;2023-09-19T10:38:13;6.97;;;2.88;;
43640;SDS011;72791;52.546;13.570;2023-09-19T10:40:41;6.90;;;2.70;;
43640;SDS011;72791;52.546;13.570;2023-09-19T10:43:11;9.82;;;3.10;;
43640;SDS011;72791;52.546;13.570;2023-09-19T10:45:43;9.10;;;4.05;;
43640;SDS011;72791;52.546;13.570;2023-09-19T10:48:10;7.32;;;3.30;;
43640;SDS011;72791;52.546;13.570;2023-09-19T10:50:41;9.68;;;3.10;;
43640;SDS011;72791;52.546;13.570;2023-09-19T10:53:32;5.85;;;2.53;;
43640;SDS011;72791;52.546;13.570;2023-09-19T10:58:47;6.40;;;3.05;;
43640;SDS011;72791;52.546;13.570;2023-09-19T11:01:14;8.73;;;3.13;;
43640;SDS011;72791;52.546;13.570;2023-09-19T11:03:41;7.68;;;2.83;;
43640;SDS011;72791;52.546;13.570;2023-09-19T11:06:19;4.28;;;2.38;;
43640;SDS011;72791;52.546;13.570;2023-09-19T11:11:47;6.70;;;2.50;;
43640;SDS011;72791;52.546;13.570;2023-09-19T11:30:50;10.55;;;4.53;;
43640;SDS011;72791;52.546;13.570;2023-09-19T11:33:26;10.18;;;3.03;;
43640;SDS011;72791;52.546;13.570;2023-09-19T11:36:12;7.95;;;2.83;;
43640;SDS011;72791;52.546;13.570;2023-09-19T11:47:14;5.60;;;2.75;;
43640;SDS011;72791;52.546;13.570;2023-09-19T11:49:28;4.38;;;1.83;;
43640;SDS011;72791;52.546;13.570;2023-09-19T11:51:56;4.00;;;2.10;;
43640;SDS011;72791;52.546;13.570;2023-09-19T11:54:29;7.47;;;2.35;;
43640;SDS011;72791;52.546;13.570;2023-09-19T11:57:00;5.32;;;2.70;;
43640;SDS011;72791;52.546;13.570;2023-09-19T11:59:27;7.47;;;2.50;;
43640;SDS011;72791;52.546;13.570;2023-09-19T12:01:56;9.13;;;3.58;;
43640;SDS011;72791;52.546;13.570;2023-09-19T12:04:44;6.68;;;2.47;;
43640;SDS011;72791;52.546;13.570;2023-09-19T12:07:14;7.00;;;2.60;;
43640;SDS011;72791;52.546;13.570;2023-09-19T12:09:44;6.45;;;2.33;;
43640;SDS011;72791;52.546;13.570;2023-09-19T12:12:25;4.63;;;2.08;;
43640;SDS011;72791;52.546;13.570;2023-09-19T12:15:00;5.72;;;2.53;;
43640;SDS011;72791;52.546;13.570;2023-09-19T12:17:36;8.00;;;2.40;;
43640;SDS011;72791;52.546;13.570;2023-09-19T12:20:01;9.77;;;2.70;;
43640;SDS011;72791;52.546;13.570;2023-09-19T12:22:40;6.88;;;2.25;;
43640;SDS011;72791;52.546;13.570;2023-09-19T12:25:10;7.60;;;2.33;;
43640;SDS011;72791;52.546;13.570;2023-09-19T12:27:43;7.22;;;1.80;;
43640;SDS011;72791;52.546;13.570;2023-09-19T12:30:12;5.35;;;2.38;;
43640;SDS011;72791;52.546;13.570;2023-09-19T12:32:47;5.57;;;2.08;;
43640;SDS011;72791;52.546;13.570;2023-09-19T12:35:27;4.68;;;1.73;;
43640;SDS011;72791;52.546;13.570;2023-09-19T12:38:01;5.07;;;2.10;;
43640;SDS011;72791;52.546;13.570;2023-09-19T12:40:28;8.13;;;2.05;;
43640;SDS011;72791;52.546;13.570;2023-09-19T12:42:59;9.20;;;3.60;;
43640;SDS011;72791;52.546;13.570;2023-09-19T12:45:29;8.30;;;1.80;;
43640;SDS011;72791;52.546;13.570;2023-09-19T12:53:32;5.35;;;1.70;;
43640;SDS011;72791;52.546;13.570;2023-09-19T12:56:21;4.15;;;2.05;;
43640;SDS011;72791;52.546;13.570;2023-09-19T12:58:53;3.55;;;1.63;;
43640;SDS011;72791;52.546;13.570;2023-09-19T13:01:19;3.85;;;1.77;;
43640;SDS011;72791;52.546;13.570;2023-09-19T13:04:09;8.88;;;2.75;;
43640;SDS011;72791;52.546;13.570;2023-09-19T13:06:49;6.03;;;1.60;;
43640;SDS011;72791;52.546;13.570;2023-09-19T13:09:20;9.18;;;2.38;;
43640;SDS011;72791;52.546;13.570;2023-09-19T13:11:47;6.20;;;1.65;;
43640;SDS011;72791;52.546;13.570;2023-09-19T13:19:51;4.63;;;1.35;;
43640;SDS011;72791;52.546;13.570;2023-09-19T13:25:14;4.43;;;2.22;;
43640;SDS011;72791;52.546;13.570;2023-09-19T13:27:45;5.50;;;1.63;;
43640;SDS011;72791;52.546;13.570;2023-09-19T13:30:17;4.28;;;1.83;;
43640;SDS011;72791;52.546;13.570;2023-09-19T13:32:44;4.30;;;1.60;;
43640;SDS011;72791;52.546;13.570;2023-09-19T13:35:13;5.60;;;1.48;;
43640;SDS011;72791;52.546;13.570;2023-09-19T13:37:41;5.28;;;1.27;;
43640;SDS011;72791;52.546;13.570;2023-09-19T13:40:13;4.70;;;1.77;;
43640;SDS011;72791;52.546;13.570;2023-09-19T13:42:40;5.78;;;1.40;;
43640;SDS011;72791;52.546;13.570;2023-09-19T13:45:06;7.35;;;1.80;;
43640;SDS011;72791;52.546;13.570;2023-09-19T13:47:36;4.57;;;1.73;;
43640;SDS011;72791;52.546;13.570;2023-09-19T13:50:03;3.03;;;1.67;;
43640;SDS011;72791;52.546;13.570;2023-09-19T13:52:30;4.63;;;1.77;;
43640;SDS011;72791;52.546;13.570;2023-09-19T13:54:56;8.27;;;2.55;;
43640;SDS011;72791;52.546;13.570;2023-09-19T13:57:26;7.75;;;1.60;;
43640;SDS011;72791;52.546;13.570;2023-09-19T13:59:52;4.85;;;1.45;;
43640;SDS011;72791;52.546;13.570;2023-09-19T14:02:20;6.15;;;2.30;;
43640;SDS011;72791;52.546;13.570;2023-09-19T14:04:50;3.60;;;2.15;;
43640;SDS011;72791;52.546;13.570;2023-09-19T14:07:17;4.57;;;1.55;;
43640;SDS011;72791;52.546;13.570;2023-09-19T14:09:45;4.13;;;1.63;;
43640;SDS011;72791;52.546;13.570;2023-09-19T14:12:12;6.25;;;2.00;;
43640;SDS011;72791;52.546;13.570;2023-09-19T14:14:40;4.95;;;1.85;;
43640;SDS011;72791;52.546;13.570;2023-09-19T14:17:06;3.40;;;1.88;;
43640;SDS011;72791;52.546;13.570;2023-09-19T14:19:32;7.25;;;1.50;;
43640;SDS011;72791;52.546;13.570;2023-09-19T14:22:02;8.95;;;1.85;;
43640;SDS011;72791;52.546;13.570;2023-09-19T14:24:32;4.45;;;1.60;;
43640;SDS011;72791;52.546;13.570;2023-09-19T14:26:59;7.00;;;2.90;;
43640;SDS011;72791;52.546;13.570;2023-09-19T14:29:25;5.55;;;1.90;;
43640;SDS011;72791;52.546;13.570;2023-09-19T14:31:50;5.20;;;1.83;;
43640;SDS011;72791;52.546;13.570;2023-09-19T14:34:17;4.65;;;1.90;;
43640;SDS011;72791;52.546;13.570;2023-09-19T14:36:43;7.43;;;1.73;;
43640;SDS011;72791;52.546;13.570;2023-09-19T14:39:10;5.32;;;1.88;;
43640;SDS011;72791;52.546;13.570;2023-09-19T14:41:35;5.28;;;2.10;;
43640;SDS011;72791;52.546;13.570;2023-09-19T14:44:02;4.00;;;1.75;;
43640;SDS011;72791;52.546;13.570;2023-09-19T14:46:29;4.40;;;1.40;;
43640;SDS011;72791;52.546;13.570;2023-09-19T14:48:56;4.18;;;1.88;;
43640;SDS011;72791;52.546;13.570;2023-09-19T14:51:30;5.18;;;1.88;;
43640;SDS011;72791;52.546;13.570;2023-09-19T14:53:56;4.15;;;2.00;;
43640;SDS011;72791;52.546;13.570;2023-09-19T14:56:22;3.40;;;1.88;;
43640;SDS011;72791;52.546;13.570;2023-09-19T14:58:50;6.47;;;1.95;;
43640;SDS011;72791;52.546;13.570;2023-09-19T15:01:16;3.55;;;1.55;;
43640;SDS011;72791;52.546;13.570;2023-09-19T15:03:42;4.55;;;2.08;;
43640;SDS011;72791;52.546;13.570;2023-09-19T15:06:09;3.78;;;1.40;;
43640;SDS011;72791;52.546;13.570;2023-09-19T15:08:40;6.72;;;2.30;;
43640;SDS011;72791;52.546;13.570;2023-09-19T15:11:11;4.80;;;1.77;;
43640;SDS011;72791;52.546;13.570;2023-09-19T15:13:38;6.63;;;2.10;;
43640;SDS011;72791;52.546;13.570;2023-09-19T15:16:06;5.70;;;2.38;;
43640;SDS011;72791;52.546;13.570;2023-09-19T15:18:34;6.60;;;1.77;;
43640;SDS011;72791;52.546;13.570;2023-09-19T15:21:11;2.30;;;1.50;;
43640;SDS011;72791;52.546;13.570;2023-09-19T15:23:40;6.10;;;2.00;;
43640;SDS011;72791;52.546;13.570;2023-09-19T15:26:07;4.28;;;1.80;;
43640;SDS011;72791;52.546;13.570;2023-09-19T15:28:36;5.97;;;1.90;;
43640;SDS011;72791;52.546;13.570;2023-09-19T15:33:36;6.22;;;2.17;;
43640;SDS011;72791;52.546;13.570;2023-09-19T15:36:04;4.68;;;2.08;;
43640;SDS011;72791;52.546;13.570;2023-09-19T15:44:00;4.78;;;2.13;;
43640;SDS011;72791;52.546;13.570;2023-09-19T15:46:30;5.30;;;1.70;;
43640;SDS011;72791;52.546;13.570;2023-09-19T15:49:02;4.03;;;1.90;;
43640;SDS011;72791;52.546;13.570;2023-09-19T15:51:28;5.50;;;2.10;;
43640;SDS011;72791;52.546;13.570;2023-09-19T15:53:54;4.75;;;1.88;;